Buffalo Ridge, South Dakota
Current Conditions -  °F | °C
As of 3:56 PM on Wednesday 22 Oct 2014 (Local Time) from KFSD Reporting Station
Overcast Overcast  
Wind Chill: 69°   Ceiling: 4800
Heat Index: 69°   Visibility: 10mi
Dew Point: 53°   Wind: 7mph
Humidity: 57%   Direction: 230°SW
Pressure: 29.93"   Gusts: NA
Location:  43.66°N, 96.82°W
Report Text: KFSD 222056Z 23006KT 10SM FEW031 BKN048 OVC080 21/12 A2993 RMK AO2 RAB29E49 SLP132 P0000 60000 T02060117 55014
Loading
Personal Weather Stations






























Interactive Weather Map
Tropical Storm Tracking
New forecast layout! Learn more

10-Day Weather Forecast

Advertisements
Track Severe Weather on mobile